N750CB LOWS-EDDL
Flight info
| Callsign | N750CB |
|---|---|
| Flight time | N/A |
| Altitude | 43000 |
| Route | INROM DCT SIMBA Y700 NENUM DCT EPTEU L604 MOOCE DCT TESDU DCT AMETU T852 EKSAK/N0477F260 T852 KULIX/N0479F240 T852 TINSA T854 DOMUX DOMUX1A |
| Aircraft | C750/M-SBDE3FGHRWXY/S |
Departure
| Time | 2026-04-27 18:55 |
|---|---|
| Airport | Salzburg Airport (LOWS) |
Arrival
| Time | N/A |
|---|---|
| Airport | Düsseldorf Airport (EDDL) |
| Time | Latitude | Longitude | Altitude | Speed | Heading |
|---|---|---|---|---|---|
| 2026-04-27 18:28 | 47.79692 | 12.99796 | 1418 ft | 0 kts | 66° |
| 2026-04-27 18:48 | 47.79692 | 12.99798 | 1418 ft | 2 kts | 73° |
| 2026-04-27 18:48 | 47.79681 | 12.99802 | 1418 ft | 3 kts | 171° |
| 2026-04-27 18:48 | 47.79661 | 12.99806 | 1418 ft | 3 kts | 170° |
| 2026-04-27 18:49 | 47.79650 | 12.99811 | 1418 ft | 0 kts | 164° |
| 2026-04-27 18:50 | 47.79649 | 12.99811 | 1418 ft | 1 kts | 165° |
| 2026-04-27 18:51 | 47.79632 | 12.99807 | 1418 ft | 4 kts | 193° |
| 2026-04-27 18:51 | 47.79610 | 12.99810 | 1418 ft | 4 kts | 160° |
| 2026-04-27 18:51 | 47.79567 | 12.99835 | 1418 ft | 10 kts | 159° |
| 2026-04-27 18:51 | 47.79550 | 12.99900 | 1418 ft | 7 kts | 70° |
| 2026-04-27 18:52 | 47.79553 | 12.99970 | 1417 ft | 7 kts | 112° |
| 2026-04-27 18:52 | 47.79520 | 13.00013 | 1417 ft | 5 kts | 165° |
| 2026-04-27 18:52 | 47.79480 | 13.00037 | 1417 ft | 11 kts | 150° |
| 2026-04-27 18:53 | 47.79180 | 13.00221 | 1416 ft | 36 kts | 157° |
| 2026-04-27 18:53 | 47.78948 | 13.00369 | 1416 ft | 35 kts | 156° |
| 2026-04-27 18:53 | 47.78730 | 13.00509 | 1416 ft | 33 kts | 156° |
| 2026-04-27 18:53 | 47.78541 | 13.00648 | 1416 ft | 28 kts | 129° |
| 2026-04-27 18:54 | 47.78542 | 13.00748 | 1416 ft | 7 kts | 70° |
| 2026-04-27 18:54 | 47.78558 | 13.00813 | 1416 ft | 8 kts | 70° |
| 2026-04-27 18:54 | 47.78582 | 13.00864 | 1416 ft | 2 kts | 9° |
| 2026-04-27 18:54 | 47.78605 | 13.00852 | 1416 ft | 6 kts | 338° |
| 2026-04-27 18:55 | 47.78728 | 13.00769 | 1417 ft | 55 kts | 336° |
| 2026-04-27 18:55 | 47.79420 | 13.00327 | 1466 ft | 141 kts | 336° |
| 2026-04-27 18:55 | 47.80289 | 12.99792 | 2239 ft | 142 kts | 338° |
| 2026-04-27 18:55 | 47.81314 | 12.99177 | 2556 ft | 176 kts | 342° |
| 2026-04-27 18:56 | 47.82677 | 12.99158 | 2693 ft | 224 kts | 17° |
| 2026-04-27 18:56 | 47.84119 | 13.00388 | 3066 ft | 259 kts | 35° |
| 2026-04-27 18:56 | 47.85694 | 13.02138 | 3027 ft | 296 kts | 37° |
| 2026-04-27 18:56 | 47.87385 | 13.04023 | 3189 ft | 307 kts | 36° |
| 2026-04-27 18:57 | 47.89084 | 13.05837 | 3968 ft | 294 kts | 35° |
| 2026-04-27 18:57 | 47.90713 | 13.07581 | 4746 ft | 283 kts | 36° |
| 2026-04-27 18:57 | 47.92283 | 13.09288 | 5454 ft | 272 kts | 36° |
| 2026-04-27 18:57 | 47.93792 | 13.10929 | 6138 ft | 270 kts | 36° |
| 2026-04-27 18:58 | 47.95325 | 13.12589 | 6651 ft | 274 kts | 35° |
| 2026-04-27 18:58 | 47.96867 | 13.14261 | 7221 ft | 276 kts | 35° |
| 2026-04-27 18:58 | 47.98428 | 13.15958 | 7741 ft | 279 kts | 35° |
| 2026-04-27 18:58 | 48.00090 | 13.17504 | 8546 ft | 283 kts | 20° |
| 2026-04-27 18:59 | 48.02017 | 13.17882 | 9628 ft | 281 kts | 354° |
| 2026-04-27 18:59 | 48.03867 | 13.17019 | 10508 ft | 281 kts | 331° |
| 2026-04-27 18:59 | 48.05570 | 13.15647 | 11386 ft | 282 kts | 329° |
| 2026-04-27 18:59 | 48.07326 | 13.14213 | 12257 ft | 286 kts | 329° |
| 2026-04-27 19:00 | 48.09066 | 13.12819 | 13113 ft | 289 kts | 329° |
| 2026-04-27 19:00 | 48.10847 | 13.11395 | 13983 ft | 292 kts | 329° |
| 2026-04-27 19:00 | 48.12645 | 13.09948 | 14751 ft | 295 kts | 329° |
| 2026-04-27 19:00 | 48.14459 | 13.08486 | 15536 ft | 298 kts | 329° |
| 2026-04-27 19:01 | 48.16291 | 13.07010 | 16333 ft | 300 kts | 329° |
| 2026-04-27 19:01 | 48.18140 | 13.05520 | 17138 ft | 303 kts | 329° |
| 2026-04-27 19:01 | 48.20006 | 13.04015 | 17975 ft | 306 kts | 328° |
| 2026-04-27 19:01 | 48.21892 | 13.02493 | 18772 ft | 309 kts | 328° |
| 2026-04-27 19:02 | 48.23930 | 13.01367 | 19437 ft | 319 kts | 346° |
| 2026-04-27 19:02 | 48.26136 | 13.00904 | 20268 ft | 320 kts | 348° |
| 2026-04-27 19:02 | 48.28348 | 13.00427 | 21056 ft | 323 kts | 347° |
| 2026-04-27 19:02 | 48.30582 | 12.99918 | 21812 ft | 326 kts | 347° |
| 2026-04-27 19:03 | 48.32836 | 12.99418 | 22596 ft | 329 kts | 347° |
| 2026-04-27 19:03 | 48.35112 | 12.98930 | 23390 ft | 332 kts | 348° |
| 2026-04-27 19:03 | 48.37421 | 12.98452 | 24037 ft | 337 kts | 348° |
| 2026-04-27 19:03 | 48.38965 | 12.98142 | 24456 ft | 339 kts | 348° |
| 2026-04-27 19:04 | 48.42113 | 12.97532 | 25318 ft | 343 kts | 348° |
| 2026-04-27 19:04 | 48.44488 | 12.97091 | 25972 ft | 346 kts | 348° |
| 2026-04-27 19:04 | 48.46888 | 12.96662 | 26599 ft | 349 kts | 348° |
| 2026-04-27 19:04 | 48.49310 | 12.96247 | 27243 ft | 352 kts | 349° |
| 2026-04-27 19:05 | 48.51754 | 12.95844 | 27892 ft | 355 kts | 349° |
| 2026-04-27 19:05 | 48.54223 | 12.95453 | 28558 ft | 358 kts | 349° |
| 2026-04-27 19:05 | 48.56716 | 12.95075 | 29223 ft | 362 kts | 349° |
| 2026-04-27 19:05 | 48.59235 | 12.94710 | 29911 ft | 365 kts | 349° |
| 2026-04-27 19:06 | 48.61774 | 12.94358 | 30518 ft | 368 kts | 349° |
| 2026-04-27 19:06 | 48.64338 | 12.94015 | 31088 ft | 370 kts | 349° |
| 2026-04-27 19:06 | 48.66848 | 12.93232 | 31613 ft | 367 kts | 339° |
| 2026-04-27 19:06 | 48.69281 | 12.92047 | 32196 ft | 368 kts | 337° |
| 2026-04-27 19:07 | 48.71706 | 12.90910 | 32729 ft | 372 kts | 339° |
| 2026-04-27 19:07 | 48.74297 | 12.90076 | 33267 ft | 379 kts | 346° |
| 2026-04-27 19:07 | 48.76923 | 12.89624 | 33431 ft | 393 kts | 349° |
| 2026-04-27 19:07 | 48.79697 | 12.89213 | 33440 ft | 407 kts | 348° |
| 2026-04-27 19:08 | 48.82540 | 12.88581 | 33483 ft | 419 kts | 345° |
| 2026-04-27 19:08 | 48.85452 | 12.87827 | 33649 ft | 429 kts | 346° |
| 2026-04-27 19:08 | 48.88410 | 12.87171 | 34169 ft | 431 kts | 347° |
| 2026-04-27 19:08 | 48.91379 | 12.86582 | 34683 ft | 430 kts | 347° |
| 2026-04-27 19:09 | 48.94339 | 12.85943 | 35182 ft | 429 kts | 346° |
| 2026-04-27 19:09 | 48.97287 | 12.85255 | 35656 ft | 429 kts | 346° |
| 2026-04-27 19:09 | 49.00243 | 12.84586 | 36141 ft | 430 kts | 347° |
| 2026-04-27 19:09 | 49.03206 | 12.83948 | 36649 ft | 430 kts | 347° |
| 2026-04-27 19:10 | 49.06171 | 12.83302 | 37121 ft | 430 kts | 347° |
| 2026-04-27 19:10 | 49.09136 | 12.82635 | 37610 ft | 431 kts | 347° |
| 2026-04-27 19:10 | 49.12066 | 12.81775 | 38057 ft | 427 kts | 340° |
| 2026-04-27 19:10 | 49.13927 | 12.80837 | 38384 ft | 424 kts | 335° |
| 2026-04-27 19:11 | 49.17420 | 12.78148 | 39011 ft | 419 kts | 324° |
| 2026-04-27 19:11 | 49.19748 | 12.75495 | 39371 ft | 417 kts | 316° |
| 2026-04-27 19:11 | 49.21821 | 12.72404 | 39740 ft | 416 kts | 312° |
| 2026-04-27 19:11 | 49.23858 | 12.69239 | 40109 ft | 417 kts | 313° |
| 2026-04-27 19:12 | 49.25906 | 12.66083 | 40482 ft | 419 kts | 313° |
| 2026-04-27 19:12 | 49.27957 | 12.62907 | 40871 ft | 420 kts | 313° |
| 2026-04-27 19:12 | 49.30009 | 12.59709 | 41249 ft | 421 kts | 313° |
| 2026-04-27 19:12 | 49.31995 | 12.56414 | 41593 ft | 422 kts | 307° |
| 2026-04-27 19:13 | 49.33636 | 12.52695 | 41964 ft | 422 kts | 299° |
| 2026-04-27 19:13 | 49.34892 | 12.48627 | 42319 ft | 423 kts | 291° |
| 2026-04-27 19:13 | 49.35891 | 12.44375 | 42692 ft | 424 kts | 290° |
| 2026-04-27 19:13 | 49.36896 | 12.40119 | 43065 ft | 425 kts | 290° |
| 2026-04-27 19:14 | 49.37916 | 12.35832 | 43164 ft | 432 kts | 290° |
| 2026-04-27 19:14 | 49.39994 | 12.26967 | 43176 ft | 450 kts | 290° |
| 2026-04-27 19:15 | 49.42148 | 12.17766 | 43179 ft | 466 kts | 290° |
| 2026-04-27 19:15 | 49.44368 | 12.08233 | 43172 ft | 481 kts | 290° |
| 2026-04-27 19:16 | 49.46645 | 11.98412 | 43165 ft | 495 kts | 290° |
| 2026-04-27 19:16 | 49.48961 | 11.88375 | 43170 ft | 505 kts | 290° |
| 2026-04-27 19:17 | 49.51297 | 11.78184 | 43166 ft | 500 kts | 290° |
| 2026-04-27 19:17 | 49.53578 | 11.68203 | 43156 ft | 493 kts | 290° |
| 2026-04-27 19:18 | 49.55924 | 11.58306 | 43146 ft | 491 kts | 294° |
| 2026-04-27 19:18 | 49.59589 | 11.49480 | 43159 ft | 490 kts | 309° |
| 2026-04-27 19:19 | 49.64080 | 11.41586 | 43171 ft | 490 kts | 310° |
| 2026-04-27 19:19 | 49.68555 | 11.33633 | 43180 ft | 491 kts | 310° |
| 2026-04-27 19:20 | 49.73046 | 11.25680 | 43177 ft | 491 kts | 310° |
| 2026-04-27 19:20 | 49.77519 | 11.17702 | 43178 ft | 491 kts | 310° |
| 2026-04-27 19:21 | 49.81993 | 11.09717 | 43179 ft | 491 kts | 310° |
| 2026-04-27 19:21 | 49.86467 | 11.01697 | 43186 ft | 493 kts | 310° |
| 2026-04-27 19:22 | 49.90950 | 10.93641 | 43199 ft | 494 kts | 310° |
| 2026-04-27 19:22 | 49.95439 | 10.85546 | 43191 ft | 495 kts | 310° |
| 2026-04-27 19:23 | 49.99932 | 10.77419 | 43193 ft | 496 kts | 309° |
| 2026-04-27 19:23 | 50.04429 | 10.69261 | 43197 ft | 497 kts | 309° |
| 2026-04-27 19:24 | 50.08921 | 10.61084 | 43192 ft | 497 kts | 309° |
| 2026-04-27 19:24 | 50.13407 | 10.52895 | 43189 ft | 496 kts | 309° |
| 2026-04-27 19:25 | 50.17873 | 10.44714 | 43201 ft | 495 kts | 309° |
| 2026-04-27 19:25 | 50.22159 | 10.36319 | 43193 ft | 494 kts | 304° |
| 2026-04-27 19:26 | 50.26015 | 10.27646 | 43183 ft | 477 kts | 304° |
| 2026-04-27 19:26 | 50.29788 | 10.19247 | 43169 ft | 466 kts | 304° |
| 2026-04-27 19:26 | 50.31614 | 10.15138 | 43141 ft | 454 kts | 304° |
| 2026-04-27 19:27 | 50.33419 | 10.11165 | 43108 ft | 443 kts | 307° |
| 2026-04-27 19:27 | 50.35462 | 10.07622 | 42941 ft | 436 kts | 313° |
| 2026-04-27 19:27 | 50.37578 | 10.04194 | 42238 ft | 439 kts | 313° |
| 2026-04-27 19:27 | 50.39670 | 10.00734 | 41540 ft | 436 kts | 311° |
| 2026-04-27 19:28 | 50.41723 | 9.97273 | 40873 ft | 430 kts | 311° |
| 2026-04-27 19:28 | 50.43754 | 9.93872 | 40227 ft | 425 kts | 311° |
| 2026-04-27 19:28 | 50.45776 | 9.90519 | 39625 ft | 420 kts | 311° |
| 2026-04-27 19:28 | 50.47770 | 9.87198 | 39017 ft | 416 kts | 311° |
| 2026-04-27 19:29 | 50.49733 | 9.83905 | 38302 ft | 412 kts | 310° |
| 2026-04-27 19:29 | 50.53722 | 9.77209 | 38199 ft | 420 kts | 310° |
| 2026-04-27 19:30 | 50.57710 | 9.70510 | 38202 ft | 430 kts | 310° |
| 2026-04-27 19:30 | 50.61766 | 9.63675 | 38056 ft | 424 kts | 310° |
| 2026-04-27 19:30 | 50.63803 | 9.60236 | 37349 ft | 422 kts | 310° |
| 2026-04-27 19:31 | 50.65794 | 9.56868 | 36685 ft | 418 kts | 309° |
| 2026-04-27 19:31 | 50.67741 | 9.53571 | 36047 ft | 414 kts | 309° |
| 2026-04-27 19:31 | 50.69693 | 9.50263 | 35427 ft | 410 kts | 309° |
| 2026-04-27 19:31 | 50.71611 | 9.47010 | 35193 ft | 396 kts | 308° |
| 2026-04-27 19:32 | 50.73455 | 9.43880 | 35190 ft | 387 kts | 308° |
| 2026-04-27 19:32 | 50.77161 | 9.37545 | 35167 ft | 393 kts | 308° |
| 2026-04-27 19:32 | 50.79023 | 9.34380 | 34660 ft | 392 kts | 308° |
| 2026-04-27 19:33 | 50.80864 | 9.31241 | 34153 ft | 387 kts | 307° |
| 2026-04-27 19:33 | 50.81482 | 9.30185 | 33965 ft | 386 kts | 307° |
| 2026-04-27 19:33 | 50.84477 | 9.25049 | 32991 ft | 378 kts | 307° |
| 2026-04-27 19:33 | 50.86251 | 9.22007 | 32432 ft | 374 kts | 307° |
| 2026-04-27 19:34 | 50.88007 | 9.18994 | 31880 ft | 370 kts | 307° |
| 2026-04-27 19:34 | 50.89744 | 9.16008 | 31343 ft | 367 kts | 307° |
| 2026-04-27 19:34 | 50.90886 | 9.14041 | 30993 ft | 365 kts | 307° |
| 2026-04-27 19:34 | 50.93171 | 9.10105 | 30301 ft | 361 kts | 307° |
| 2026-04-27 19:35 | 50.94291 | 9.08173 | 29913 ft | 359 kts | 307° |
| 2026-04-27 19:35 | 50.95976 | 9.05264 | 29312 ft | 356 kts | 307° |
| 2026-04-27 19:35 | 50.97645 | 9.02376 | 28732 ft | 354 kts | 307° |
| 2026-04-27 19:35 | 50.99302 | 8.99504 | 28182 ft | 352 kts | 307° |
| 2026-04-27 19:36 | 51.00951 | 8.96640 | 27623 ft | 350 kts | 307° |
| 2026-04-27 19:36 | 51.02588 | 8.93792 | 27064 ft | 348 kts | 307° |
| 2026-04-27 19:36 | 51.04215 | 8.90955 | 26537 ft | 346 kts | 307° |
| 2026-04-27 19:36 | 51.05829 | 8.88134 | 26003 ft | 344 kts | 307° |
| 2026-04-27 19:37 | 51.07431 | 8.85326 | 25490 ft | 342 kts | 307° |
| 2026-04-27 19:37 | 51.09021 | 8.82534 | 25189 ft | 334 kts | 307° |
| 2026-04-27 19:37 | 51.10544 | 8.79871 | 25186 ft | 317 kts | 307° |
| 2026-04-27 19:37 | 51.11996 | 8.77348 | 25186 ft | 301 kts | 307° |
| 2026-04-27 19:38 | 51.13384 | 8.74950 | 25183 ft | 288 kts | 307° |
| 2026-04-27 19:38 | 51.14713 | 8.72666 | 25198 ft | 276 kts | 307° |
| 2026-04-27 19:38 | 51.16022 | 8.70418 | 25205 ft | 279 kts | 307° |
| 2026-04-27 19:38 | 51.17344 | 8.68134 | 25205 ft | 280 kts | 307° |